createdAt,value
2019-02-15T00:01:24.428Z,23.00
2019-02-15T00:03:53.148Z,23.83
2019-02-15T00:06:21.879Z,24.90
2019-02-15T00:08:50.598Z,24.02
2019-02-15T00:11:19.370Z,25.30
2019-02-15T00:13:48.113Z,23.27
2019-02-15T00:16:16.874Z,25.40
2019-02-15T00:19:04.678Z,22.55
2019-02-15T00:21:40.022Z,26.30
2019-02-15T00:24:08.802Z,22.30
2019-02-15T00:26:40.987Z,23.55
2019-02-15T00:29:09.772Z,23.05
2019-02-15T00:31:39.498Z,26.70
2019-02-15T00:34:08.738Z,22.95
2019-02-15T00:36:37.502Z,22.13
2019-02-15T00:39:06.825Z,21.85
2019-02-15T00:41:35.634Z,26.45
2019-02-15T00:44:04.499Z,24.75
2019-02-15T00:46:53.741Z,24.70
2019-02-15T00:49:29.226Z,24.00
2019-02-15T00:52:04.297Z,23.77
2019-02-15T00:54:57.967Z,25.27
2019-02-15T00:57:49.004Z,26.23
2019-02-15T01:00:33.334Z,26.07
2019-02-15T01:03:19.835Z,26.50
2019-02-15T01:06:02.522Z,23.52
2019-02-15T01:08:59.728Z,23.83
2019-02-15T01:11:40.443Z,25.90
2019-02-15T01:14:09.245Z,24.63
2019-02-15T01:16:38.019Z,29.77
2019-02-15T01:19:06.768Z,27.93
2019-02-15T01:21:35.549Z,39.42
2019-02-15T01:24:04.421Z,35.30
2019-02-15T01:26:40.552Z,30.35
2019-02-15T01:29:26.102Z,37.42
2019-02-15T01:32:14.782Z,30.17
2019-02-15T01:35:02.616Z,36.10
2019-02-15T01:37:40.850Z,30.10
2019-02-15T01:40:34.541Z,25.02
2019-02-15T01:43:28.934Z,21.45
2019-02-15T01:46:32.039Z,20.48
2019-02-15T01:49:00.738Z,21.27
2019-02-15T01:51:29.442Z,17.15
2019-02-15T01:53:58.172Z,19.60
2019-02-15T01:56:26.896Z,24.32
2019-02-15T01:58:55.602Z,17.32
2019-02-15T02:01:26.434Z,25.72
2019-02-15T02:03:55.443Z,23.87
2019-02-15T02:06:24.214Z,25.17
2019-02-15T02:08:52.965Z,27.55
2019-02-15T02:11:21.760Z,22.50
2019-02-15T02:13:50.660Z,24.18
2019-02-15T02:16:19.393Z,21.02
2019-02-15T02:18:48.152Z,23.57
2019-02-15T02:21:17.010Z,24.18
2019-02-15T02:23:45.838Z,22.13
2019-02-15T02:26:14.542Z,20.52
2019-02-15T02:28:43.347Z,21.48
2019-02-15T02:31:12.105Z,19.77
2019-02-15T02:33:41.773Z,18.35
2019-02-15T02:36:10.482Z,13.08
2019-02-15T02:38:39.206Z,15.45
2019-02-15T02:41:07.910Z,16.23
2019-02-15T02:43:39.173Z,17.27
2019-02-15T02:46:07.993Z,18.65
2019-02-15T02:48:36.753Z,20.55
2019-02-15T02:51:05.683Z,25.77
2019-02-15T02:53:34.522Z,21.12
2019-02-15T02:56:03.273Z,26.93
2019-02-15T02:58:36.851Z,20.77
2019-02-15T03:01:05.639Z,20.25
2019-02-15T03:03:34.347Z,27.13
2019-02-15T03:06:06.373Z,32.85
2019-02-15T03:08:35.208Z,27.37
2019-02-15T03:11:04.061Z,27.15
2019-02-15T03:13:32.961Z,27.58
2019-02-15T03:16:02.109Z,31.07
2019-02-15T03:18:30.871Z,32.58
2019-02-15T03:20:59.602Z,36.20
2019-02-15T03:23:28.354Z,28.73
2019-02-15T03:25:57.176Z,27.25
2019-02-15T03:28:26.257Z,26.00
2019-02-15T03:30:55.000Z,25.37
2019-02-15T03:33:23.762Z,22.30
2019-02-15T03:35:58.501Z,24.85
2019-02-15T03:38:38.262Z,19.70
2019-02-15T03:41:23.776Z,24.98
2019-02-15T03:43:52.563Z,22.62
2019-02-15T03:46:21.317Z,22.25
2019-02-15T03:48:50.155Z,23.65
2019-02-15T03:51:18.983Z,28.17
2019-02-15T03:53:47.728Z,22.93
2019-02-15T03:56:16.558Z,18.95
2019-02-15T03:58:45.277Z,20.15
2019-02-15T04:01:14.549Z,18.98
2019-02-15T04:03:43.306Z,17.55
2019-02-15T04:06:12.024Z,19.73
2019-02-15T04:08:40.820Z,22.15
2019-02-15T04:11:09.616Z,21.02
2019-02-15T04:13:38.336Z,17.65
2019-02-15T04:16:07.107Z,17.77
2019-02-15T04:18:35.942Z,17.50
2019-02-15T04:21:05.190Z,20.88
2019-02-15T04:23:34.098Z,18.60
2019-02-15T04:26:02.833Z,23.45
2019-02-15T04:28:31.540Z,18.57
2019-02-15T04:31:00.278Z,21.77
2019-02-15T04:33:29.060Z,19.42
2019-02-15T04:35:57.782Z,19.55
2019-02-15T04:38:26.538Z,21.12
2019-02-15T04:40:56.212Z,21.87
2019-02-15T04:43:24.936Z,19.12
2019-02-15T04:45:53.740Z,19.12
2019-02-15T04:48:22.484Z,21.35
2019-02-15T04:50:51.198Z,21.15
2019-02-15T04:53:19.944Z,17.10
2019-02-15T04:55:48.683Z,19.30
2019-02-15T04:58:17.479Z,17.55
2019-02-15T05:00:46.212Z,22.65
2019-02-15T05:03:14.973Z,19.65
2019-02-15T05:05:43.682Z,24.35
2019-02-15T05:08:12.421Z,19.23
2019-02-15T05:10:41.727Z,20.92
2019-02-15T05:13:10.461Z,19.10
2019-02-15T05:15:39.281Z,25.90
2019-02-15T05:18:08.045Z,27.90
2019-02-15T05:20:36.751Z,21.42
2019-02-15T05:23:05.807Z,21.27
2019-02-15T05:25:34.537Z,20.10
2019-02-15T05:28:03.271Z,24.82
2019-02-15T05:30:32.030Z,23.60
2019-02-15T05:33:00.771Z,26.48
2019-02-15T05:35:29.498Z,33.33
2019-02-15T05:37:58.598Z,28.05
2019-02-15T05:40:27.330Z,26.12
2019-02-15T05:42:56.036Z,19.27
2019-02-15T05:45:24.862Z,27.95
2019-02-15T05:47:53.646Z,39.50
2019-02-15T05:50:22.653Z,39.85
2019-02-15T05:52:51.431Z,48.58
2019-02-15T05:55:20.240Z,48.60
2019-02-15T05:57:51.357Z,41.77
2019-02-15T06:00:20.087Z,41.23
2019-02-15T06:02:48.833Z,45.25
2019-02-15T06:05:17.537Z,41.60
2019-02-15T06:07:46.265Z,43.90
2019-02-15T06:10:15.009Z,36.48
2019-02-15T06:12:43.803Z,25.95
2019-02-15T06:15:15.227Z,24.10
2019-02-15T06:17:43.010Z,26.77
2019-02-15T06:20:11.754Z,29.15
2019-02-15T06:22:40.687Z,37.55
2019-02-15T06:25:09.415Z,22.90
2019-02-15T06:27:38.153Z,23.12
2019-02-15T06:30:07.691Z,25.08
2019-02-15T06:32:36.557Z,23.98
2019-02-15T06:35:05.910Z,24.98
2019-02-15T06:37:37.529Z,22.98
2019-02-15T06:40:06.443Z,18.70
2019-02-15T06:42:35.334Z,19.02
2019-02-15T06:45:04.682Z,18.45
2019-02-15T06:47:35.228Z,21.35
2019-02-15T06:50:23.576Z,21.45
2019-02-15T06:52:52.452Z,18.82
2019-02-15T06:55:21.354Z,23.07
2019-02-15T06:57:51.298Z,17.10
2019-02-15T07:00:36.126Z,21.12
2019-02-15T07:03:11.513Z,22.52
2019-02-15T07:05:40.242Z,32.85
2019-02-15T07:08:08.962Z,32.73
2019-02-15T07:10:37.716Z,28.65
2019-02-15T07:13:25.787Z,26.52
2019-02-15T07:15:54.518Z,24.72
2019-02-15T07:18:23.254Z,21.15
2019-02-15T07:20:54.043Z,24.25
2019-02-15T07:23:22.777Z,19.67
2019-02-15T07:25:51.489Z,22.25
2019-02-15T07:28:20.513Z,18.62
2019-02-15T07:30:49.290Z,17.35
2019-02-15T07:33:18.078Z,15.72
2019-02-15T07:35:46.886Z,17.17
2019-02-15T07:38:34.954Z,14.73
2019-02-15T07:41:03.716Z,15.78
2019-02-15T07:43:32.456Z,17.52
2019-02-15T07:46:01.307Z,16.20
2019-02-15T07:48:30.114Z,15.23
2019-02-15T07:50:58.921Z,14.25
2019-02-15T07:53:27.670Z,19.07
2019-02-15T07:55:57.907Z,16.17
2019-02-15T07:58:26.665Z,15.05
2019-02-15T08:00:55.403Z,16.00
2019-02-15T08:03:24.105Z,16.67
2019-02-15T08:05:52.855Z,14.18
2019-02-15T08:08:21.621Z,13.98
2019-02-15T08:10:50.343Z,13.55
2019-02-15T08:13:22.201Z,13.08
2019-02-15T08:15:52.218Z,15.00
2019-02-15T08:18:21.166Z,11.93
2019-02-15T08:20:49.952Z,11.28
2019-02-15T08:23:18.759Z,13.85
2019-02-15T08:25:47.490Z,16.85
2019-02-15T08:28:19.226Z,12.70
2019-02-15T08:30:48.121Z,10.65
2019-02-15T08:33:16.830Z,10.35
2019-02-15T08:35:45.545Z,12.30
2019-02-15T08:38:14.321Z,14.70
2019-02-15T08:40:43.194Z,11.60
2019-02-15T08:43:11.925Z,11.83
2019-02-15T08:45:40.742Z,13.60
2019-02-15T08:48:09.538Z,12.98
2019-02-15T08:50:38.259Z,9.80
2019-02-15T08:53:09.550Z,12.47
2019-02-15T08:55:38.386Z,14.78
2019-02-15T08:58:07.102Z,15.25
2019-02-15T09:00:35.830Z,12.10
2019-02-15T09:03:05.739Z,15.15
2019-02-15T09:05:34.458Z,10.90
2019-02-15T09:08:03.206Z,11.05
2019-02-15T09:10:31.985Z,12.13
2019-02-15T09:13:00.695Z,14.05
2019-02-15T09:15:29.420Z,10.82
2019-02-15T09:17:58.206Z,15.85
2019-02-15T09:20:26.950Z,11.18
2019-02-15T09:22:55.762Z,12.07
2019-02-15T09:25:24.538Z,13.43
2019-02-15T09:28:14.318Z,12.80
2019-02-15T09:30:44.810Z,13.25
2019-02-15T09:33:15.082Z,9.93
2019-02-15T09:35:43.955Z,15.90
2019-02-15T09:38:12.732Z,12.27
2019-02-15T09:40:41.522Z,11.83
2019-02-15T09:43:10.358Z,11.13
2019-02-15T09:45:39.170Z,9.47
2019-02-15T09:48:08.893Z,14.33
2019-02-15T09:50:37.667Z,11.67
2019-02-15T09:53:08.052Z,12.63
2019-02-15T09:55:36.843Z,10.93
2019-02-15T09:58:05.770Z,9.37
2019-02-15T10:00:34.523Z,12.63
2019-02-15T10:03:03.426Z,10.20
2019-02-15T10:05:32.146Z,12.03
2019-02-15T10:08:00.986Z,14.47
2019-02-15T10:10:29.790Z,13.30
2019-02-15T10:12:58.510Z,11.67
2019-02-15T10:15:27.234Z,9.20
2019-02-15T10:17:55.975Z,11.43
2019-02-15T10:20:24.732Z,8.37
2019-02-15T10:22:53.491Z,11.07
2019-02-15T10:25:22.223Z,12.37
2019-02-15T10:27:50.954Z,9.87
2019-02-15T10:30:19.715Z,8.63
2019-02-15T10:32:48.502Z,10.40
2019-02-15T10:35:17.217Z,9.50
2019-02-15T10:37:46.037Z,10.03
2019-02-15T10:40:15.030Z,9.60
2019-02-15T10:42:43.778Z,10.50
2019-02-15T10:45:12.830Z,13.00
2019-02-15T10:47:41.591Z,11.77
2019-02-15T10:50:10.409Z,10.27
2019-02-15T10:52:40.201Z,9.70
2019-02-15T10:55:09.023Z,11.90
2019-02-15T10:57:37.737Z,8.47
2019-02-15T11:00:09.281Z,10.83
2019-02-15T11:02:38.212Z,10.17
2019-02-15T11:05:07.085Z,9.03
2019-02-15T11:07:35.829Z,10.80
2019-02-15T11:10:05.319Z,9.93
2019-02-15T11:12:34.062Z,9.90
2019-02-15T11:15:02.918Z,11.23
2019-02-15T11:17:31.646Z,13.03
2019-02-15T11:20:00.428Z,8.90
2019-02-15T11:22:29.230Z,9.57
2019-02-15T11:24:57.942Z,9.43
2019-02-15T11:27:27.706Z,9.60
2019-02-15T11:29:56.453Z,9.23
2019-02-15T11:32:25.336Z,8.33
2019-02-15T11:34:54.134Z,8.27
2019-02-15T11:37:22.944Z,9.87
2019-02-15T11:39:51.730Z,13.97
2019-02-15T11:42:20.483Z,10.93
2019-02-15T11:44:49.261Z,9.73
2019-02-15T11:47:18.027Z,10.20
2019-02-15T11:49:46.981Z,7.57
2019-02-15T11:52:15.810Z,8.47
2019-02-15T11:54:44.635Z,9.90
2019-02-15T11:57:13.344Z,7.33
2019-02-15T11:59:44.755Z,10.37
2019-02-15T12:02:13.598Z,8.00
2019-02-15T12:04:42.360Z,6.90
2019-02-15T12:07:11.130Z,8.37
2019-02-15T12:09:40.968Z,8.13
2019-02-15T12:12:10.991Z,10.40
2019-02-15T12:14:40.085Z,9.87
2019-02-15T12:17:12.873Z,8.87
2019-02-15T12:19:41.656Z,7.60
2019-02-15T12:22:12.258Z,6.87
2019-02-15T12:24:41.107Z,9.83
2019-02-15T12:27:11.918Z,10.83
2019-02-15T12:29:40.702Z,8.03
2019-02-15T12:32:09.546Z,9.13
2019-02-15T12:34:38.272Z,8.13
2019-02-15T12:37:07.011Z,8.60
2019-02-15T12:39:35.747Z,9.90
2019-02-15T12:42:04.490Z,9.50
2019-02-15T12:44:33.217Z,9.47
2019-02-15T12:47:02.030Z,9.50
2019-02-15T12:49:30.759Z,6.60
2019-02-15T12:51:59.475Z,8.23
2019-02-15T12:54:28.224Z,10.10
2019-02-15T12:56:56.938Z,11.53
2019-02-15T12:59:25.651Z,6.40
2019-02-15T13:01:54.394Z,7.57
2019-02-15T13:04:23.198Z,6.80
2019-02-15T13:06:51.905Z,7.40
2019-02-15T13:09:20.627Z,7.53
2019-02-15T13:11:49.422Z,8.50
2019-02-15T13:14:18.155Z,7.37
2019-02-15T13:16:46.891Z,7.17
2019-02-15T13:19:15.612Z,7.90
2019-02-15T13:21:44.330Z,11.70
2019-02-15T13:24:13.070Z,6.97
2019-02-15T13:26:41.791Z,11.07
2019-02-15T13:29:10.519Z,9.90
2019-02-15T13:31:48.890Z,8.07
2019-02-15T13:34:17.778Z,8.30
2019-02-15T13:36:47.291Z,10.03
2019-02-15T13:39:16.088Z,8.13
2019-02-15T13:41:44.830Z,10.93
2019-02-15T13:44:13.630Z,7.83
2019-02-15T13:46:42.520Z,8.20
2019-02-15T13:49:12.992Z,10.63
2019-02-15T13:51:41.943Z,10.30
2019-02-15T13:54:10.920Z,8.00
2019-02-15T13:56:40.628Z,9.63
2019-02-15T13:59:09.984Z,7.07
2019-02-15T14:01:39.381Z,11.07
2019-02-15T14:04:08.406Z,11.57
2019-02-15T14:06:37.201Z,9.90
2019-02-15T14:09:05.995Z,8.90
2019-02-15T14:11:34.732Z,8.63
2019-02-15T14:14:03.463Z,10.60
2019-02-15T14:16:32.461Z,10.87
2019-02-15T14:19:01.222Z,11.23
2019-02-15T14:21:30.041Z,18.60
2019-02-15T14:23:58.742Z,11.43
2019-02-15T14:26:27.522Z,12.40
2019-02-15T14:28:56.466Z,9.00
2019-02-15T14:31:25.207Z,12.20
2019-02-15T14:33:54.054Z,14.90
2019-02-15T14:36:22.895Z,13.50
2019-02-15T14:38:53.185Z,14.13
2019-02-15T14:41:21.974Z,10.17
2019-02-15T14:43:50.691Z,11.77
2019-02-15T14:46:19.414Z,10.53
2019-02-15T14:48:48.201Z,10.47
2019-02-15T14:51:16.959Z,14.23
2019-02-15T14:53:45.754Z,15.00
2019-02-15T14:56:14.506Z,11.90
2019-02-15T14:58:43.218Z,15.50
2019-02-15T15:01:15.027Z,13.83
2019-02-15T15:03:43.750Z,14.37
2019-02-15T15:06:12.508Z,12.17
2019-02-15T15:08:41.314Z,19.20
2019-02-15T15:11:10.054Z,14.23
2019-02-15T15:13:38.882Z,17.60
2019-02-15T15:16:07.703Z,11.03
2019-02-15T15:18:36.451Z,11.77
2019-02-15T15:21:05.255Z,12.93
2019-02-15T15:23:34.059Z,15.90
2019-02-15T15:26:11.534Z,14.70
2019-02-15T15:28:34.534Z,12.47
2019-02-15T15:31:03.459Z,11.07
2019-02-15T15:33:32.319Z,14.47
2019-02-15T15:36:01.066Z,9.77
2019-02-15T15:38:29.888Z,13.83
2019-02-15T15:40:58.618Z,14.33
2019-02-15T15:43:27.409Z,13.37
2019-02-15T15:45:56.326Z,12.90
2019-02-15T15:48:25.052Z,12.77
2019-02-15T15:50:54.835Z,13.43
2019-02-15T15:53:23.605Z,15.73
2019-02-15T15:55:52.368Z,12.53
2019-02-15T15:58:21.146Z,13.80
2019-02-15T16:00:49.961Z,11.37
2019-02-15T16:03:18.723Z,9.37
2019-02-15T16:05:48.734Z,11.63
2019-02-15T16:08:19.060Z,14.67
2019-02-15T16:10:48.253Z,11.97
2019-02-15T16:13:17.152Z,12.33
2019-02-15T16:15:46.171Z,11.10
2019-02-15T16:18:14.980Z,13.30
2019-02-15T16:20:44.246Z,16.57
2019-02-15T16:23:13.059Z,13.87
2019-02-15T16:25:41.980Z,14.03
2019-02-15T16:28:11.164Z,13.83
2019-02-15T16:30:40.194Z,12.87
2019-02-15T16:33:10.481Z,15.30
2019-02-15T16:35:39.574Z,14.23
2019-02-15T16:40:38.484Z,11.73
2019-02-15T16:43:07.227Z,11.67
2019-02-15T16:45:35.934Z,12.97
2019-02-15T16:48:04.839Z,13.23
2019-02-15T16:50:33.602Z,13.37
2019-02-15T16:53:02.382Z,14.40
2019-02-15T16:55:31.151Z,13.83
2019-02-15T16:57:59.892Z,12.37
2019-02-15T17:00:31.685Z,14.37
2019-02-15T17:03:00.539Z,12.60
2019-02-15T17:05:29.364Z,13.87
2019-02-15T17:07:58.122Z,16.20
2019-02-15T17:10:26.954Z,16.53
2019-02-15T17:12:55.726Z,18.53
2019-02-15T17:15:24.549Z,23.10
2019-02-15T17:17:53.846Z,34.27
2019-02-15T17:20:52.693Z,40.77
2019-02-15T17:23:21.539Z,31.43
2019-02-15T17:25:50.460Z,35.07
2019-02-15T17:28:22.832Z,37.60
2019-02-15T17:30:51.674Z,40.03
2019-02-15T17:33:20.435Z,45.33
2019-02-15T17:35:49.193Z,30.10
2019-02-15T17:38:17.936Z,25.47
2019-02-15T17:40:46.666Z,18.73
2019-02-15T17:43:15.441Z,18.87
2019-02-15T17:45:44.341Z,21.73
2019-02-15T17:48:15.481Z,19.03
2019-02-15T17:51:03.520Z,17.70
2019-02-15T17:53:32.466Z,19.77
2019-02-15T17:56:01.276Z,18.47
2019-02-15T17:58:30.058Z,23.40
2019-02-15T18:00:58.866Z,19.57
2019-02-15T18:03:27.615Z,17.47
2019-02-15T18:05:56.466Z,23.50
2019-02-15T18:08:25.246Z,21.83
2019-02-15T18:10:54.012Z,35.10
2019-02-15T18:13:22.810Z,30.53
2019-02-15T18:15:51.586Z,27.50
2019-02-15T18:18:20.363Z,42.53
2019-02-15T18:20:49.186Z,58.20
2019-02-15T18:23:18.002Z,45.33
2019-02-15T18:25:46.722Z,43.03
2019-02-15T18:28:15.498Z,38.27
2019-02-15T18:30:44.211Z,29.43
2019-02-15T18:33:13.018Z,29.30
2019-02-15T18:35:43.067Z,34.43
2019-02-15T18:38:11.779Z,35.37
2019-02-15T18:40:40.614Z,35.60
2019-02-15T18:43:09.382Z,32.88
2019-02-15T18:45:38.117Z,31.50
2019-02-15T18:48:06.859Z,30.03
2019-02-15T18:50:39.818Z,24.13
2019-02-15T18:53:08.645Z,26.03
2019-02-15T18:55:37.387Z,22.43
2019-02-15T18:58:06.295Z,24.43
2019-02-15T19:00:35.091Z,17.67
2019-02-15T19:03:05.008Z,19.83
2019-02-15T19:05:33.914Z,23.10
2019-02-15T19:08:02.942Z,17.30
2019-02-15T19:10:31.715Z,19.43
2019-02-15T19:13:00.474Z,19.53
2019-02-15T19:15:29.476Z,21.07
2019-02-15T19:17:58.216Z,18.10
2019-02-15T19:20:27.263Z,20.70
2019-02-15T19:22:56.120Z,17.92
2019-02-15T19:25:25.006Z,20.02
2019-02-15T19:27:56.158Z,17.12
2019-02-15T19:30:26.014Z,23.60
2019-02-15T19:32:54.778Z,20.37
2019-02-15T19:35:36.964Z,18.23
2019-02-15T19:38:05.724Z,18.67
2019-02-15T19:40:34.547Z,16.87
2019-02-15T19:43:04.470Z,16.37
2019-02-15T19:45:33.439Z,15.85
2019-02-15T19:48:02.908Z,19.32
2019-02-15T19:50:34.537Z,17.80
2019-02-15T19:53:05.159Z,17.87
2019-02-15T19:55:34.757Z,21.07
2019-02-15T19:58:03.757Z,16.80
2019-02-15T20:00:32.505Z,18.92
2019-02-15T20:03:01.341Z,15.55
2019-02-15T20:05:30.095Z,19.40
2019-02-15T20:07:58.876Z,16.50
2019-02-15T20:10:27.798Z,17.05
2019-02-15T20:12:56.623Z,13.10
2019-02-15T20:15:25.448Z,13.13
2019-02-15T20:17:54.431Z,17.63
2019-02-15T20:20:27.705Z,14.28
2019-02-15T20:22:56.582Z,16.65
2019-02-15T20:25:25.938Z,14.38
2019-02-15T20:27:54.770Z,11.12
2019-02-15T20:30:23.618Z,15.13
2019-02-15T20:32:52.450Z,13.77
2019-02-15T20:35:21.243Z,14.40
2019-02-15T20:37:52.186Z,13.90
2019-02-15T20:40:20.955Z,14.65
2019-02-15T20:42:49.960Z,17.32
2019-02-15T20:45:21.509Z,15.65
2019-02-15T20:47:50.340Z,16.55
2019-02-15T20:50:19.402Z,15.58
2019-02-15T20:52:48.154Z,17.17
2019-02-15T20:55:16.967Z,18.85
2019-02-15T20:57:45.727Z,18.82
2019-02-15T21:00:17.230Z,17.02
2019-02-15T21:02:47.630Z,17.07
2019-02-15T21:05:16.397Z,16.73
2019-02-15T21:07:45.118Z,20.62
2019-02-15T21:10:14.014Z,17.17
2019-02-15T21:12:44.409Z,22.15
2019-02-15T21:15:15.014Z,19.87
2019-02-15T21:17:43.770Z,21.02
2019-02-15T21:20:12.552Z,22.50
2019-02-15T21:22:43.015Z,18.15
2019-02-15T21:25:12.352Z,15.30
2019-02-15T21:27:41.162Z,18.15
2019-02-15T21:30:12.122Z,18.20
2019-02-15T21:32:40.844Z,15.80
2019-02-15T21:35:09.582Z,16.37
2019-02-15T21:37:38.460Z,14.90
2019-02-15T21:40:08.990Z,15.93
2019-02-15T21:42:37.758Z,16.10
2019-02-15T21:45:08.143Z,19.65
2019-02-15T21:47:37.060Z,15.70
2019-02-15T21:50:05.994Z,20.10
2019-02-15T21:52:43.549Z,15.85
2019-02-15T21:55:05.611Z,15.48
2019-02-15T21:57:34.530Z,13.15
2019-02-15T22:00:17.233Z,16.25
2019-02-15T22:02:46.004Z,14.10
2019-02-15T22:05:14.913Z,16.07
2019-02-15T22:07:43.770Z,14.95
2019-02-15T22:10:12.579Z,14.00
2019-02-15T22:12:41.407Z,15.60
2019-02-15T22:15:11.322Z,17.77
2019-02-15T22:17:40.156Z,14.30
2019-02-15T22:20:10.186Z,16.70
2019-02-15T22:22:38.946Z,19.87
2019-02-15T22:25:07.728Z,15.90
2019-02-15T22:27:36.486Z,16.57
2019-02-15T22:30:06.363Z,17.52
2019-02-15T22:32:35.198Z,15.65
2019-02-15T22:35:03.938Z,18.42
2019-02-15T22:37:32.883Z,20.15
2019-02-15T22:40:27.414Z,18.48
2019-02-15T22:42:56.757Z,15.38
2019-02-15T22:45:25.589Z,19.98
2019-02-15T22:47:54.334Z,14.05
2019-02-15T22:50:23.125Z,17.25
2019-02-15T22:52:51.893Z,15.43
2019-02-15T22:55:20.610Z,14.55
2019-02-15T22:57:49.369Z,16.55
2019-02-15T23:00:25.294Z,14.25
2019-02-15T23:02:54.183Z,15.90
2019-02-15T23:05:22.988Z,13.85
2019-02-15T23:07:51.812Z,15.80
2019-02-15T23:10:20.539Z,18.95
2019-02-15T23:12:49.328Z,17.70
2019-02-15T23:15:18.222Z,14.93
2019-02-15T23:17:47.043Z,16.73
2019-02-15T23:20:18.744Z,14.15
2019-02-15T23:22:47.497Z,13.32
2019-02-15T23:25:16.407Z,18.80
2019-02-15T23:27:45.134Z,16.00
2019-02-15T23:30:13.978Z,16.17
2019-02-15T23:32:42.741Z,17.50
2019-02-15T23:35:11.925Z,16.73
2019-02-15T23:37:40.739Z,16.05
2019-02-15T23:40:09.504Z,17.12
2019-02-15T23:42:38.270Z,19.82
2019-02-15T23:45:09.133Z,21.50
2019-02-15T23:47:37.864Z,16.65
2019-02-15T23:50:07.380Z,18.48
2019-02-15T23:52:36.146Z,17.92
2019-02-15T23:55:04.986Z,17.82
2019-02-15T23:57:33.743Z,17.55
